Time;durP1;ratioP1;P1;durP2;ratioP2;P2;SDS_P1;SDS_P2;PMS_P1;PMS_P2;Temp;Humidity;BMP_temperature;BMP_pressure;BME280_temperature;BME280_humidity;BME280_pressure;Samples;Min_cycle;Max_cycle;Signal;HPM_P1;HPM_P2
2022/09/04 00:00:18;;;;;;;8.35;5.10;;;;;;;11.69;78.67;100939.23;1673415;84;20992;-75
2022/09/04 00:02:55;;;;;;;7.55;5.25;;;;;;;11.68;78.44;100941.92;1670701;84;21267;-75
2022/09/04 00:05:37;;;;;;;7.03;5.17;;;;;;;11.65;78.63;100937.63;1670666;84;21513;-74
2022/09/04 00:08:38;;;;;;;9.48;6.25;;;;;;;11.65;78.75;100940.25;1669613;84;21153;-74
2022/09/04 00:11:43;;;;;;;9.75;5.90;;;;;;;11.62;78.72;100935.11;1670948;84;21048;-74
2022/09/04 00:14:14;;;;;;;8.00;5.70;;;;;;;11.58;78.55;100937.41;1670562;84;21065;-75
2022/09/04 00:17:02;;;;;;;9.97;5.90;;;;;;;11.54;78.83;100941.06;1670758;84;21083;-75
2022/09/04 00:19:38;;;;;;;8.27;5.77;;;;;;;11.50;78.75;100941.63;1670698;84;21024;-75
2022/09/04 00:22:27;;;;;;;11.30;5.30;;;;;;;11.47;78.85;100944.77;1670543;84;21112;-75
2022/09/04 00:25:17;;;;;;;8.67;5.97;;;;;;;11.43;78.89;100942.71;1669190;84;21001;-75
2022/09/04 00:27:49;;;;;;;10.68;5.92;;;;;;;11.43;78.99;100947.95;1666965;84;24704;-74
2022/09/04 00:30:20;;;;;;;7.45;5.10;;;;;;;11.41;79.05;100945.83;1670679;84;21516;-75
2022/09/04 00:32:55;;;;;;;9.50;5.80;;;;;;;11.39;79.06;100947.67;1638147;86;21105;-75
2022/09/04 00:35:39;;;;;;;11.03;6.63;;;;;;;11.33;78.93;100946.52;1636590;84;21783;-75
2022/09/04 00:38:14;;;;;;;8.00;6.00;;;;;;;11.33;79.31;100951.34;1670782;84;21047;-75
2022/09/04 00:41:10;;;;;;;9.87;6.30;;;;;;;11.32;79.19;100952.69;1670539;84;21091;-75
2022/09/04 00:44:18;;;;;;;9.03;6.00;;;;;;;11.31;79.31;100959.71;1669796;84;21605;-75
2022/09/04 00:47:15;;;;;;;7.00;5.95;;;;;;;11.34;79.67;100955.67;1664179;84;21064;-75
2022/09/04 00:50:27;;;;;;;9.70;6.40;;;;;;;11.37;79.69;100962.59;1670912;85;21159;-75
2022/09/04 00:53:22;;;;;;;9.63;5.90;;;;;;;11.36;79.59;100963.06;1670730;84;21024;-76
2022/09/04 00:56:19;;;;;;;11.40;6.72;;;;;;;11.35;79.65;100972.28;1670895;84;21067;-75
2022/09/04 00:58:57;;;;;;;9.00;6.15;;;;;;;11.35;79.66;100974.44;1668999;84;21060;-76
2022/09/04 01:01:27;;;;;;;11.23;6.20;;;;;;;11.33;79.51;100976.70;1661538;84;21251;-76
2022/09/04 01:04:24;;;;;;;12.93;6.20;;;;;;;11.34;79.74;100977.98;1670358;84;21135;-75
2022/09/04 01:07:21;;;;;;;10.10;6.00;;;;;;;11.36;79.64;100975.30;1662796;85;21041;-76
2022/09/04 01:10:24;;;;;;;7.20;5.57;;;;;;;11.34;79.59;100970.11;1667182;84;21118;-76
2022/09/04 01:13:22;;;;;;;11.37;6.83;;;;;;;11.30;79.39;100969.78;1670907;84;21035;-75
2022/09/04 01:16:00;;;;;;;10.47;6.93;;;;;;;11.25;79.43;100976.97;1670757;84;21584;-75
2022/09/04 01:18:51;;;;;;;13.07;7.93;;;;;;;11.23;79.72;100972.20;1651894;85;21068;-75
2022/09/04 01:22:06;;;;;;;12.17;7.63;;;;;;;11.22;79.48;100980.11;1670186;84;21074;-76
2022/09/04 01:25:12;;;;;;;10.43;6.63;;;;;;;11.18;79.45;100978.05;1670858;84;21016;-74
2022/09/04 01:28:03;;;;;;;10.40;6.27;;;;;;;11.14;79.41;100982.96;1670561;84;21517;-75
2022/09/04 01:31:09;;;;;;;11.57;7.60;;;;;;;11.08;79.41;100985.77;1671014;84;21027;-75
2022/09/04 01:33:53;;;;;;;10.03;7.00;;;;;;;11.05;79.55;100986.72;1606531;87;21235;-75
2022/09/04 01:36:47;;;;;;;9.67;7.00;;;;;;;11.01;79.64;100987.73;1619590;87;20960;-75
2022/09/04 01:39:15;;;;;;;8.77;6.50;;;;;;;10.97;79.65;100986.55;1551936;89;21061;-75
2022/09/04 01:42:24;;;;;;;8.37;5.70;;;;;;;10.94;79.74;100983.09;1596642;88;21108;-75
2022/09/04 01:44:51;;;;;;;8.83;5.67;;;;;;;10.92;79.68;100981.00;1622434;87;21088;-75
2022/09/04 01:47:32;;;;;;;8.57;5.53;;;;;;;10.89;79.83;100986.34;1623314;88;21107;-75
2022/09/04 01:50:10;;;;;;;12.23;6.10;;;;;;;10.87;79.64;100990.76;1622030;87;21103;-75
2022/09/04 01:52:55;;;;;;;9.97;5.50;;;;;;;10.86;79.81;100992.98;1621470;87;21063;-75
2022/09/04 01:55:36;;;;;;;9.63;5.70;;;;;;;10.82;79.71;100990.02;1622800;87;21041;-75
2022/09/04 01:58:17;;;;;;;9.93;5.70;;;;;;;10.78;79.79;100991.03;1622489;87;21095;-75
2022/09/04 02:01:05;;;;;;;9.87;5.17;;;;;;;10.78;79.95;100991.45;1593154;87;22143;-75
2022/09/04 02:03:46;;;;;;;8.43;5.27;;;;;;;10.77;80.02;100991.91;1595364;88;21089;-75
2022/09/04 02:06:21;;;;;;;9.30;6.07;;;;;;;10.77;80.25;100984.05;1615625;88;21036;-75
2022/09/04 02:09:14;;;;;;;8.73;5.83;;;;;;;10.77;80.03;100983.19;1614686;87;21531;-76
2022/09/04 02:11:47;;;;;;;11.43;5.67;;;;;;;10.74;80.25;100976.73;1617107;87;21071;-75
2022/09/04 02:14:41;;;;;;;8.60;5.23;;;;;;;10.71;80.09;100979.84;1617171;87;21124;-75
2022/09/04 02:17:26;;;;;;;8.37;5.47;;;;;;;10.73;80.34;100985.05;1616286;87;21548;-76
2022/09/04 02:20:13;;;;;;;9.20;4.70;;;;;;;10.74;80.51;100978.04;1626207;87;21040;-76
2022/09/04 02:23:12;;;;;;;9.77;5.73;;;;;;;10.75;80.38;100984.53;1624421;87;21009;-76
2022/09/04 02:25:54;;;;;;;11.18;5.42;;;;;;;10.74;80.25;100978.04;1616421;85;21559;-76
2022/09/04 02:28:41;;;;;;;9.50;5.60;;;;;;;10.73;80.54;100976.33;1616986;87;21231;-76
2022/09/04 02:31:38;;;;;;;10.10;5.40;;;;;;;10.72;80.37;100967.58;1600889;88;21035;-75
2022/09/04 02:34:56;;;;;;;9.43;5.83;;;;;;;10.67;80.29;100971.66;1630418;86;21071;-75
2022/09/04 02:37:34;;;;;;;8.17;5.27;;;;;;;10.63;80.27;100970.47;1626243;87;21536;-76
2022/09/04 02:40:19;;;;;;;9.90;5.73;;;;;;;10.60;80.24;100967.48;1625964;87;21056;-76
2022/09/04 02:43:12;;;;;;;9.10;5.67;;;;;;;10.59;80.35;100963.61;1625123;87;21713;-76
2022/09/04 02:46:04;;;;;;;10.30;5.07;;;;;;;10.55;80.25;100965.89;1617036;87;21489;-76
2022/09/04 02:49:12;;;;;;;10.33;5.40;;;;;;;10.53;80.45;100962.02;1617423;87;21093;-76
2022/09/04 02:52:14;;;;;;;10.40;5.67;;;;;;;10.51;80.40;100960.34;1617174;87;20972;-76
2022/09/04 02:55:20;;;;;;;9.57;5.00;;;;;;;10.45;80.38;100954.83;1617158;87;21506;-76
2022/09/04 02:58:27;;;;;;;8.53;4.70;;;;;;;10.43;80.52;100957.47;1617100;87;21157;-75
2022/09/04 03:01:05;;;;;;;8.70;5.07;;;;;;;10.43;80.63;100957.47;1599792;89;21080;-74
2022/09/04 03:04:11;;;;;;;8.50;5.23;;;;;;;10.47;81.05;100956.92;1614613;87;22021;-75
2022/09/04 03:06:49;;;;;;;10.20;5.87;;;;;;;10.47;81.06;100959.13;1644377;85;21095;-75
2022/09/04 03:09:33;;;;;;;8.60;5.23;;;;;;;10.49;80.96;100967.78;1622697;85;21283;-79
2022/09/04 03:12:30;;;;;;;10.30;5.03;;;;;;;10.48;80.93;100966.08;1616430;86;22120;-74
2022/09/04 03:15:08;;;;;;;9.20;6.00;;;;;;;10.46;80.98;100967.87;1644209;86;21522;-75
2022/09/04 03:17:57;;;;;;;9.57;4.97;;;;;;;10.43;80.91;100966.64;1644964;87;21505;-75
2022/09/04 03:20:31;;;;;;;10.90;5.60;;;;;;;10.45;80.99;100968.78;1654164;86;21119;-75
2022/09/04 03:23:21;;;;;;;7.60;5.30;;;;;;;10.44;81.14;100963.56;1649372;86;21036;-74
2022/09/04 03:26:22;;;;;;;;;;;;;;;10.41;80.98;100963.66;1647296;86;21596;-75
2022/09/04 03:29:23;;;;;;;8.47;4.70;;;;;;;10.41;81.39;100963.66;1645019;87;20205;-74
2022/09/04 03:32:23;;;;;;;8.20;5.10;;;;;;;10.41;81.29;100969.75;1645164;87;21012;-74
2022/09/04 03:35:11;;;;;;;7.10;4.70;;;;;;;10.37;81.10;100972.06;1618324;87;21250;-74
2022/09/04 03:38:14;;;;;;;7.83;5.20;;;;;;;10.38;81.10;100971.14;1645052;85;21017;-74
2022/09/04 03:41:07;;;;;;;9.10;4.70;;;;;;;10.34;80.90;100969.98;1651428;86;21194;-75
2022/09/04 03:44:01;;;;;;;8.17;5.07;;;;;;;10.33;81.20;100972.17;1661315;85;21033;-75
2022/09/04 03:46:54;;;;;;;8.07;5.00;;;;;;;10.25;80.93;100975.84;1657299;86;21056;-75
2022/09/04 03:49:34;;;;;;;10.63;5.20;;;;;;;10.22;81.05;100977.66;1647956;85;21060;-75
2022/09/04 03:52:10;;;;;;;8.83;5.03;;;;;;;10.21;81.25;100974.19;1645117;87;21071;-75
2022/09/04 03:55:11;;;;;;;7.63;4.70;;;;;;;10.19;81.07;100979.05;1644858;85;21148;-75
2022/09/04 03:57:58;;;;;;;9.90;5.40;;;;;;;10.15;81.07;100981.36;1647941;86;21518;-75
2022/09/04 04:00:27;;;;;;;10.67;4.90;;;;;;;10.14;81.32;100986.16;1650803;86;20929;-75
2022/09/04 04:03:30;;;;;;;9.60;5.07;;;;;;;10.13;81.53;100981.38;1645134;85;21154;-75
2022/09/04 04:06:31;;;;;;;8.47;4.97;;;;;;;10.16;81.57;100985.23;1644912;87;21115;-75
2022/09/04 04:09:10;;;;;;;9.13;4.70;;;;;;;10.16;81.69;100993.55;1620031;87;21562;-75
2022/09/04 04:11:59;;;;;;;9.03;5.37;;;;;;;10.14;81.63;100984.44;1643577;83;21112;-75
2022/09/04 04:14:50;;;;;;;7.97;5.57;;;;;;;10.16;81.58;100984.38;1623543;86;21008;-75
2022/09/04 04:17:43;;;;;;;8.30;5.13;;;;;;;10.12;81.51;100986.22;1645041;87;21103;-80
2022/09/04 04:20:30;;;;;;;8.40;4.73;;;;;;;10.08;81.58;100990.26;1645049;87;21025;-74
2022/09/04 04:23:42;;;;;;;8.53;4.97;;;;;;;10.04;81.68;100989.03;1643930;87;21342;-75
2022/09/04 04:26:37;;;;;;;9.37;5.10;;;;;;;10.08;81.67;100994.19;1650223;86;21048;-75
2022/09/04 04:29:29;;;;;;;6.83;4.67;;;;;;;10.07;81.90;100992.48;1644388;84;21076;-75
2022/09/04 04:32:25;;;;;;;7.53;4.73;;;;;;;10.03;81.78;100995.60;1644919;86;21001;-75
2022/09/04 04:35:14;;;;;;;7.17;5.10;;;;;;;10.01;81.58;101003.97;1557259;89;21657;-75
2022/09/04 04:37:54;;;;;;;7.23;4.60;;;;;;;9.98;81.95;101014.07;1653482;86;21897;-75
2022/09/04 04:40:53;;;;;;;6.47;5.10;;;;;;;10.02;82.24;101010.47;1654395;85;21059;-75
2022/09/04 04:44:01;;;;;;;9.43;5.40;;;;;;;10.07;82.51;101012.98;1626549;86;21115;-75
2022/09/04 04:46:45;;;;;;;7.43;5.10;;;;;;;10.12;82.63;101012.87;1628173;87;21727;-75
2022/09/04 04:49:52;;;;;;;9.33;5.37;;;;;;;10.17;82.81;101016.20;1645237;86;21122;-75
2022/09/04 04:52:50;;;;;;;9.77;5.30;;;;;;;10.22;82.79;101018.27;1644990;86;21060;-76
2022/09/04 04:55:46;;;;;;;12.73;5.50;;;;;;;10.27;83.02;101017.28;1619008;87;21036;-75
2022/09/04 04:58:53;;;;;;;7.87;5.30;;;;;;;10.33;83.06;101016.72;1644119;87;21620;-75
2022/09/04 05:02:06;;;;;;;10.03;5.83;;;;;;;10.38;83.27;101020.08;1645259;87;21040;-75
2022/09/04 05:05:12;;;;;;;8.47;5.20;;;;;;;10.44;83.39;101027.77;1645070;87;21565;-75
2022/09/04 05:08:04;;;;;;;10.03;5.50;;;;;;;10.49;83.37;101030.68;1633776;87;21926;-75
2022/09/04 05:10:51;;;;;;;8.97;5.60;;;;;;;10.59;83.77;101031.77;1626323;83;21148;-75
2022/09/04 05:13:51;;;;;;;9.10;5.57;;;;;;;10.67;83.91;101037.20;1669906;84;21003;-75
2022/09/04 05:16:48;;;;;;;8.85;5.75;;;;;;;10.75;84.00;101030.42;1669406;84;21012;-75
2022/09/04 05:19:42;;;;;;;9.57;5.70;;;;;;;10.86;84.19;101039.30;1642487;84;21066;-75
2022/09/04 05:22:17;;;;;;;9.03;5.57;;;;;;;11.00;84.40;101046.78;1669785;84;21129;-74
2022/09/04 05:24:58;;;;;;;9.43;5.87;;;;;;;11.11;84.47;101050.84;1672587;84;21054;-76
2022/09/04 05:27:53;;;;;;;8.43;5.93;;;;;;;11.21;84.44;101044.86;1667635;84;21118;-75
2022/09/04 05:30:52;;;;;;;9.37;5.63;;;;;;;11.32;84.25;101056.36;1667841;84;21166;-75
2022/09/04 05:33:46;;;;;;;8.67;5.70;;;;;;;11.46;84.35;101052.01;1677836;84;21050;-78
2022/09/04 05:36:27;;;;;;;8.60;5.77;;;;;;;11.55;84.10;101056.51;1675116;84;21132;-78
2022/09/04 05:39:33;;;;;;;7.67;5.80;;;;;;;11.60;83.85;101049.36;1667079;84;21351;-77
2022/09/04 05:42:28;;;;;;;8.03;6.03;;;;;;;11.70;83.91;101049.09;1667277;85;21074;-78
2022/09/04 05:45:09;;;;;;;11.33;6.40;;;;;;;11.74;83.62;101045.45;1668363;85;21070;-76
2022/09/04 05:48:16;;;;;;;10.25;6.15;;;;;;;11.82;83.67;101052.17;1668347;85;21019;-81
2022/09/04 05:51:03;;;;;;;9.08;6.30;;;;;;;11.88;83.72;101054.23;1668227;85;21968;-80
2022/09/04 05:54:01;;;;;;;7.37;5.80;;;;;;;11.96;83.68;101064.90;1633461;87;21330;-87
2022/09/04 05:57:00;;;;;;;10.35;6.37;;;;;;;12.04;83.89;101062.88;1614896;88;21551;-77
2022/09/04 05:59:47;;;;;;;11.20;6.00;;;;;;;12.17;83.74;101062.04;1610314;88;21112;-76
2022/09/04 06:02:44;;;;;;;8.50;6.12;;;;;;;12.28;83.91;101062.54;1624689;86;21059;-80
2022/09/04 06:05:29;;;;;;;8.13;6.28;;;;;;;12.37;83.74;101066.63;1622676;86;22188;-81
2022/09/04 06:08:53;;;;;;;7.60;5.47;;;;;;;12.43;83.51;101070.81;1617086;86;21090;-74
2022/09/04 06:11:35;;;;;;;9.08;6.20;;;;;;;12.54;83.60;101079.66;1620067;87;21321;-76
2022/09/04 06:14:32;;;;;;;10.75;6.60;;;;;;;12.68;83.78;101083.52;1631215;86;21096;-80
2022/09/04 06:17:25;;;;;;;8.33;6.03;;;;;;;12.76;83.50;101085.03;1601259;89;21303;-79
2022/09/04 06:20:07;;;;;;;9.43;5.95;;;;;;;12.83;83.39;101087.40;1664072;86;21214;-75
2022/09/04 06:23:18;;;;;;;9.30;6.58;;;;;;;12.93;83.68;101086.14;1663706;84;21522;-81
2022/09/04 06:26:09;;;;;;;8.33;5.70;;;;;;;13.04;83.39;101084.44;1664001;86;21058;-85
2022/09/04 06:28:47;;;;;;;8.88;6.67;;;;;;;13.09;83.13;101090.39;1598297;86;21644;-79
2022/09/04 06:31:25;;;;;;;9.10;6.22;;;;;;;13.19;83.44;101089.62;1663781;86;21019;-78
2022/09/04 06:34:30;;;;;;;9.23;7.03;;;;;;;13.25;83.10;101090.70;1663458;86;21365;-76
2022/09/04 06:37:28;;;;;;;9.05;6.25;;;;;;;13.36;83.39;101095.14;1663479;86;21047;-73
2022/09/04 06:40:25;;;;;;;9.30;6.25;;;;;;;13.45;82.99;101099.19;1662210;85;20959;-73
2022/09/04 06:43:33;;;;;;;8.08;5.92;;;;;;;13.55;83.12;101087.41;1663265;84;21050;-79
2022/09/04 06:46:25;;;;;;;7.15;5.50;;;;;;;13.65;83.14;101087.04;1663243;85;21914;-74
2022/09/04 06:49:03;;;;;;;10.70;5.83;;;;;;;13.76;83.08;101089.64;1663891;86;21193;-72
2022/09/04 06:51:38;;;;;;;8.68;6.05;;;;;;;13.87;83.02;101097.59;1663511;84;21049;-77
2022/09/04 06:54:23;;;;;;;8.45;5.87;;;;;;;13.95;82.96;101088.46;1660953;84;21492;-78
2022/09/04 06:57:16;;;;;;;9.08;5.85;;;;;;;14.06;83.08;101095.94;1593171;87;21551;-75
2022/09/04 07:00:00;;;;;;;7.30;4.75;;;;;;;14.18;83.12;101102.48;1580458;88;22278;-79
2022/09/04 07:02:56;;;;;;;6.87;5.22;;;;;;;14.28;82.82;101098.09;1593000;87;21221;-75
2022/09/04 07:06:05;;;;;;;8.90;4.97;;;;;;;14.41;82.49;101096.25;1563467;90;21187;-79
2022/09/04 07:09:09;;;;;;;6.25;4.87;;;;;;;14.53;82.31;101101.06;1592853;88;21193;-78
2022/09/04 07:11:56;;;;;;;5.72;4.47;;;;;;;14.70;82.23;101099.02;1599982;87;21003;-78
2022/09/04 07:14:49;;;;;;;6.50;4.58;;;;;;;14.83;81.98;101102.85;1605761;89;22282;-78
2022/09/04 07:17:35;;;;;;;5.53;4.35;;;;;;;14.98;81.90;101108.37;1577445;89;21146;-78
2022/09/04 07:20:30;;;;;;;6.28;4.58;;;;;;;15.10;81.29;101108.70;1600437;87;21166;-79
2022/09/04 07:23:35;;;;;;;7.17;5.03;;;;;;;15.20;80.91;101113.09;1606030;87;21121;-78
2022/09/04 07:26:28;;;;;;;5.47;4.53;;;;;;;15.28;80.66;101118.89;1577213;89;21126;-78
2022/09/04 07:29:18;;;;;;;5.78;4.20;;;;;;;15.40;80.53;101132.00;1601431;87;21340;-76
2022/09/04 07:31:51;;;;;;;6.08;4.20;;;;;;;15.51;80.66;101136.33;1555273;90;22192;-79
2022/09/04 07:34:32;;;;;;;6.60;4.28;;;;;;;15.61;80.11;101133.66;1569823;90;21102;-77
2022/09/04 07:37:29;;;;;;;6.53;4.53;;;;;;;15.73;80.01;101137.55;1575275;89;21099;-78
2022/09/04 07:40:29;;;;;;;5.30;4.08;;;;;;;15.87;79.72;101143.98;1576278;90;21142;-78
2022/09/04 07:43:08;;;;;;;;;;;;;;;15.96;79.24;101138.24;1577234;90;21176;-78
2022/09/04 07:45:50;;;;;;;5.78;4.15;;;;;;;16.04;78.46;101138.27;1576311;89;21207;-76
2022/09/04 07:48:39;;;;;;;4.50;3.77;;;;;;;16.14;78.54;101131.23;1576015;89;21094;-79
2022/09/04 07:51:12;;;;;;;5.65;4.10;;;;;;;16.26;78.37;101138.55;1572839;90;21121;-79
2022/09/04 07:54:05;;;;;;;5.08;3.77;;;;;;;16.37;78.44;101134.91;1572005;90;21138;-79
2022/09/04 07:57:15;;;;;;;5.40;4.15;;;;;;;16.62;78.10;101131.89;1574198;90;21129;-76
2022/09/04 07:59:47;;;;;;;5.92;4.22;;;;;;;16.62;78.10;101131.89;1571728;90;21175;-76
2022/09/04 08:02:47;;;;;;;7.03;4.08;;;;;;;16.77;77.70;101130.31;1572334;90;21102;-80
2022/09/04 08:05:52;;;;;;;6.15;4.53;;;;;;;16.87;77.51;101126.23;1574351;90;21121;-81
2022/09/04 08:08:47;;;;;;;5.47;3.60;;;;;;;17.01;76.97;101129.95;1577481;88;21110;-79
2022/09/04 08:11:41;;;;;;;5.87;3.85;;;;;;;17.13;76.89;101128.02;1627197;87;21504;-81
2022/09/04 08:14:31;;;;;;;5.55;4.05;;;;;;;17.24;76.17;101129.62;1616737;88;22053;-75
2022/09/04 08:17:30;;;;;;;7.15;4.22;;;;;;;17.34;75.81;101135.27;1588358;87;21026;-75
2022/09/04 08:20:33;;;;;;;6.42;3.87;;;;;;;17.44;75.47;101139.62;1617794;88;21060;-75
2022/09/04 08:23:14;;;;;;;6.05;3.65;;;;;;;17.50;75.23;101106.16;1617462;88;21603;-75
2022/09/04 08:26:21;;;;;;;5.33;3.60;;;;;;;17.64;74.89;101130.09;1617379;88;21076;-75
2022/09/04 08:29:08;;;;;;;6.08;4.00;;;;;;;17.77;74.29;101139.09;1617560;88;21140;-74
2022/09/04 08:32:09;;;;;;;4.65;3.90;;;;;;;17.88;74.04;101142.52;1616728;88;21119;-74
2022/09/04 08:34:57;;;;;;;5.12;3.35;;;;;;;18.01;74.05;101140.89;1616280;88;21029;-75
2022/09/04 08:37:35;;;;;;;3.55;2.87;;;;;;;18.17;73.57;101148.81;1601289;88;21585;-75
2022/09/04 08:40:42;;;;;;;4.53;3.42;;;;;;;18.30;73.05;101145.00;1615273;88;21069;-75
2022/09/04 08:44:05;;;;;;;3.95;3.05;;;;;;;18.45;72.73;101155.19;1617391;88;21337;-75
2022/09/04 08:47:11;;;;;;;3.45;2.70;;;;;;;18.61;72.83;101153.84;1617628;88;21546;-75
2022/09/04 08:50:12;;;;;;;3.52;2.70;;;;;;;18.83;72.35;101159.62;1617445;88;21040;-75
2022/09/04 08:52:53;;;;;;;4.15;2.77;;;;;;;19.04;71.91;101163.25;1578874;90;21604;-76
2022/09/04 08:55:44;;;;;;;3.42;2.45;;;;;;;19.24;71.80;101171.37;1540494;90;22346;-76
2022/09/04 08:58:44;;;;;;;4.35;3.12;;;;;;;19.37;70.78;101173.18;1539981;92;22009;-76
2022/09/04 09:01:19;;;;;;;4.45;2.42;;;;;;;19.47;70.28;101160.16;1556016;91;21139;-76
2022/09/04 09:03:52;;;;;;;3.50;2.67;;;;;;;19.58;69.91;101165.66;1550201;91;21597;-76
2022/09/04 09:06:56;;;;;;;3.95;3.10;;;;;;;19.72;69.80;101171.95;1549894;91;20991;-76
2022/09/04 09:09:44;;;;;;;3.37;2.30;;;;;;;19.82;69.23;101172.61;1549933;91;21078;-76
2022/09/04 09:12:39;;;;;;;4.10;1.90;;;;;;;19.92;68.41;101177.33;1549348;91;21221;-76
2022/09/04 09:15:17;;;;;;;3.02;2.37;;;;;;;19.97;67.96;101178.75;1546261;92;21026;-76
2022/09/04 09:18:01;;;;;;;2.33;2.12;;;;;;;20.05;67.60;101185.77;1606047;89;21068;-76
2022/09/04 09:20:51;;;;;;;3.12;2.50;;;;;;;20.13;67.11;101187.94;1579768;89;21123;-76
2022/09/04 09:24:15;;;;;;;2.42;2.12;;;;;;;20.21;67.13;101188.30;1573851;90;21584;-76
2022/09/04 09:27:10;;;;;;;2.70;2.20;;;;;;;20.35;66.59;101189.20;1573493;90;21182;-76
2022/09/04 09:29:51;;;;;;;2.70;2.25;;;;;;;20.46;66.30;101186.69;1685207;84;21074;-76
2022/09/04 09:32:44;;;;;;;1.87;1.50;;;;;;;20.57;65.92;101182.87;1683573;84;21080;-76
2022/09/04 09:35:54;;;;;;;2.33;1.50;;;;;;;20.65;65.38;101185.87;1679938;84;21068;-76
2022/09/04 09:38:57;;;;;;;1.95;1.75;;;;;;;20.76;64.91;101181.17;1679453;84;21461;-76
2022/09/04 09:41:54;;;;;;;1.67;1.40;;;;;;;20.88;64.39;101172.81;1667262;84;21118;-76
2022/09/04 09:45:09;;;;;;;2.27;1.30;;;;;;;21.02;64.50;101170.05;1680416;84;21071;-76
2022/09/04 09:48:06;;;;;;;2.15;1.42;;;;;;;21.15;64.16;101169.59;1683617;84;21063;-76
2022/09/04 09:51:07;;;;;;;1.82;1.57;;;;;;;21.36;64.06;101165.04;1682588;84;21142;-76
2022/09/04 09:53:52;;;;;;;2.15;1.25;;;;;;;21.51;63.03;101169.34;1678192;84;21055;-76
2022/09/04 09:57:01;;;;;;;2.30;1.52;;;;;;;21.66;62.88;101183.39;1678201;84;21138;-76
2022/09/04 10:00:05;;;;;;;3.62;1.30;;;;;;;21.80;62.61;101183.74;1651567;83;21051;-78
2022/09/04 10:03:00;;;;;;;2.25;1.72;;;;;;;21.91;61.89;101181.15;1683318;84;21527;-76
2022/09/04 10:06:10;;;;;;;1.98;1.35;;;;;;;22.09;61.51;101178.98;1684070;84;21650;-76
2022/09/04 10:09:16;;;;;;;2.22;1.47;;;;;;;22.32;61.57;101178.64;1684157;84;21488;-76
2022/09/04 10:12:06;;;;;;;3.50;1.37;;;;;;;22.55;60.90;101174.24;1682013;84;21150;-76
2022/09/04 10:15:07;;;;;;;3.65;1.45;;;;;;;22.70;60.50;101174.44;1671078;84;21028;-76
2022/09/04 10:18:07;;;;;;;1.62;1.40;;;;;;;22.87;59.71;101171.81;1669715;84;21483;-76
2022/09/04 10:20:55;;;;;;;3.15;1.60;;;;;;;23.05;59.24;101169.56;1678746;84;21020;-76
2022/09/04 10:23:44;;;;;;;2.12;1.47;;;;;;;23.31;58.73;101174.23;1677590;84;21059;-76
2022/09/04 10:26:38;;;;;;;1.65;1.35;;;;;;;23.49;58.22;101169.73;1675306;84;21222;-76
2022/09/04 10:29:33;;;;;;;3.60;1.50;;;;;;;23.63;57.65;101158.78;1670566;84;21048;-76
2022/09/04 10:32:09;;;;;;;1.67;1.55;;;;;;;23.78;57.36;101168.30;1628547;85;21031;-76
2022/09/04 10:35:06;;;;;;;2.95;1.40;;;;;;;24.04;57.30;101160.81;1669938;84;21012;-76
2022/09/04 10:37:57;;;;;;;2.52;1.60;;;;;;;24.30;57.32;101162.33;1654345;85;21058;-76
2022/09/04 10:41:04;;;;;;;2.25;2.00;;;;;;;24.56;56.51;101163.72;1671369;85;21494;-76
2022/09/04 10:44:01;;;;;;;2.85;1.62;;;;;;;24.75;56.39;101168.39;1670986;84;21517;-76
2022/09/04 10:46:53;;;;;;;3.30;1.80;;;;;;;24.97;56.15;101167.41;1670374;84;21044;-76
2022/09/04 10:49:37;;;;;;;2.35;1.72;;;;;;;24.98;54.79;101166.42;1661924;84;21150;-76
2022/09/04 10:52:34;;;;;;;3.33;1.52;;;;;;;24.98;54.31;101166.42;1671219;84;21009;-76
2022/09/04 10:55:35;;;;;;;1.60;1.50;;;;;;;25.13;54.46;101162.89;1670782;84;21116;-76
2022/09/04 10:58:23;;;;;;;1.80;1.52;;;;;;;25.14;53.73;101162.80;1670125;84;21247;-76
2022/09/04 11:01:12;;;;;;;1.32;1.22;;;;;;;25.24;53.30;101167.37;1655190;85;21570;-76
2022/09/04 11:04:26;;;;;;;1.85;1.60;;;;;;;25.14;52.43;101161.47;1671378;85;21075;-76
2022/09/04 11:07:33;;;;;;;2.15;1.50;;;;;;;25.14;52.88;101156.10;1669591;84;21047;-76
2022/09/04 11:10:18;;;;;;;2.72;1.30;;;;;;;25.36;52.47;101159.61;1659712;85;21103;-80
2022/09/04 11:13:24;;;;;;;1.70;1.47;;;;;;;25.41;51.71;101153.81;1670350;84;21063;-82
2022/09/04 11:16:02;;;;;;;1.98;1.40;;;;;;;25.41;51.77;101155.16;1674113;85;21086;-76
2022/09/04 11:18:52;;;;;;;1.90;1.20;;;;;;;25.50;50.98;101147.66;1666465;84;21610;-81
2022/09/04 11:21:40;;;;;;;1.47;1.37;;;;;;;25.40;50.69;101146.27;1666450;85;21063;-78
2022/09/04 11:24:52;;;;;;;2.90;1.20;;;;;;;25.34;50.48;101144.97;1666273;84;21139;-78
2022/09/04 11:27:33;;;;;;;1.40;1.30;;;;;;;25.40;50.25;101146.77;1666563;85;21027;-78
2022/09/04 11:30:18;;;;;;;2.52;1.50;;;;;;;25.20;50.23;101145.83;1660941;85;21584;-82
2022/09/04 11:33:07;;;;;;;2.45;1.52;;;;;;;25.13;50.20;101140.09;1666159;85;21063;-83
2022/09/04 11:35:41;;;;;;;;;;;;;;;25.27;50.18;101142.45;1668483;85;21066;-83
2022/09/04 11:38:17;;;;;;;3.30;1.62;;;;;;;25.48;49.54;101134.36;1666044;85;22045;-77
2022/09/04 11:41:14;;;;;;;2.33;1.60;;;;;;;25.38;49.34;101132.13;1666212;85;21003;-77
2022/09/04 11:44:10;;;;;;;2.17;1.80;;;;;;;25.08;49.35;101139.64;1666190;85;21058;-78
2022/09/04 11:47:03;;;;;;;2.00;1.50;;;;;;;24.85;49.48;101138.95;1666365;86;21094;-90
2022/09/04 11:50:03;;;;;;;1.57;1.47;;;;;;;24.61;49.64;101144.09;1666293;85;21007;-82
2022/09/04 11:53:23;;;;;;;2.40;1.52;;;;;;;24.38;49.69;101144.63;1652278;84;21304;-78
2022/09/04 11:56:02;;;;;;;1.80;1.60;;;;;;;24.15;49.54;101141.19;1666183;85;21453;-76
2022/09/04 11:59:05;;;;;;;2.83;1.57;;;;;;;24.15;49.85;101133.16;1663219;84;21571;-76
2022/09/04 12:01:53;;;;;;;1.60;1.30;;;;;;;24.19;50.36;101136.42;1663504;85;21599;-76
2022/09/04 12:04:48;;;;;;;2.12;1.85;;;;;;;24.34;49.97;101144.53;1665762;84;21011;-76
2022/09/04 12:08:01;;;;;;;1.70;1.52;;;;;;;24.38;49.69;101142.44;1665554;85;21060;-76
2022/09/04 12:11:06;;;;;;;3.42;1.60;;;;;;;24.52;49.82;101139.98;1666374;85;20997;-77
2022/09/04 12:14:10;;;;;;;1.45;1.35;;;;;;;24.68;49.46;101139.05;1666264;84;21070;-77
2022/09/04 12:17:01;;;;;;;1.82;1.50;;;;;;;25.00;49.78;101134.08;1671493;84;21072;-75
2022/09/04 12:19:57;;;;;;;4.60;2.22;;;;;;;25.40;49.64;101133.34;1671152;85;21056;-76
2022/09/04 12:22:50;;;;;;;2.50;1.17;;;;;;;25.65;49.13;101134.70;1668098;84;21147;-75
2022/09/04 12:25:49;;;;;;;1.30;1.00;;;;;;;26.01;48.78;101137.28;1654087;84;21593;-76
2022/09/04 12:28:43;;;;;;;2.25;1.52;;;;;;;25.95;47.81;101142.72;1677288;84;21032;-76
2022/09/04 12:31:50;;;;;;;1.40;1.30;;;;;;;25.70;47.89;101143.20;1667467;84;21035;-75
2022/09/04 12:34:56;;;;;;;3.27;1.40;;;;;;;25.38;47.85;101144.20;1674578;84;21028;-82
2022/09/04 12:37:49;;;;;;;1.80;1.40;;;;;;;25.10;47.72;101142.55;1674202;84;21142;-75
2022/09/04 12:40:33;;;;;;;1.50;1.22;;;;;;;25.02;47.79;101146.88;1669959;84;21013;-75
2022/09/04 12:43:19;;;;;;;8.65;2.52;;;;;;;24.97;48.43;101147.30;1682500;84;21533;-75
2022/09/04 12:46:20;;;;;;;3.27;1.37;;;;;;;25.05;48.60;101146.61;1666492;84;21007;-75
2022/09/04 12:49:18;;;;;;;3.62;1.50;;;;;;;25.11;48.31;101148.79;1621326;86;21092;-76
2022/09/04 12:52:05;;;;;;;1.35;1.25;;;;;;;25.07;48.00;101159.41;1619557;86;21555;-76
2022/09/04 12:55:13;;;;;;;1.95;1.30;;;;;;;24.96;47.55;101152.78;1633856;86;21536;-76
2022/09/04 12:58:01;;;;;;;1.80;1.55;;;;;;;24.92;48.17;101151.70;1637224;86;20934;-76
2022/09/04 13:00:39;;;;;;;1.82;1.55;;;;;;;24.99;48.18;101158.72;1625629;85;21071;-75
2022/09/04 13:03:42;;;;;;;2.12;1.25;;;;;;;25.09;48.32;101162.81;1648108;86;21561;-76
2022/09/04 13:06:18;;;;;;;2.50;1.32;;;;;;;25.28;48.15;101162.11;1631155;86;21562;-76
2022/09/04 13:09:03;;;;;;;2.33;1.37;;;;;;;25.22;47.71;101166.17;1619443;86;21111;-78
2022/09/04 13:12:04;;;;;;;1.62;1.37;;;;;;;25.15;47.52;101173.05;1604526;88;21037;-77
2022/09/04 13:15:01;;;;;;;2.22;1.57;;;;;;;25.04;47.31;101169.06;1592838;88;21540;-76
2022/09/04 13:18:17;;;;;;;4.20;1.67;;;;;;;24.88;47.15;101171.70;1597566;88;21047;-76
2022/09/04 13:21:24;;;;;;;2.60;1.45;;;;;;;24.64;47.19;101171.97;1594583;88;21356;-77